Time;durP1;ratioP1;P1;durP2;ratioP2;P2;SDS_P1;SDS_P2;PMS_P1;PMS_P2;Temp;Humidity;BMP_temperature;BMP_pressure;BME280_temperature;BME280_humidity;BME280_pressure;Samples;Min_cycle;Max_cycle;Signal;HPM_P1;HPM_P2
2022/08/16 00:02:02;;;;;;;14.57;13.02;;;21.00;99.90;;;;;;4961661;28;20039;-85
2022/08/16 00:04:28;;;;;;;15.07;13.40;;;21.00;99.90;;;;;;4961057;28;20046;-86
2022/08/16 00:06:54;;;;;;;14.75;13.20;;;20.90;99.90;;;;;;4977382;28;20089;-85
2022/08/16 00:09:20;;;;;;;15.68;13.95;;;20.80;99.90;;;;;;4977387;28;20465;-86
2022/08/16 00:11:46;;;;;;;16.73;14.13;;;20.80;99.90;;;;;;4977881;28;20081;-84
2022/08/16 00:14:13;;;;;;;16.38;14.68;;;20.80;99.90;;;;;;4976927;28;20431;-85
2022/08/16 00:16:39;;;;;;;15.23;13.75;;;20.70;99.90;;;;;;4960917;28;20046;-86
2022/08/16 00:19:05;;;;;;;17.73;15.57;;;20.70;99.90;;;;;;4976986;28;20038;-86
2022/08/16 00:21:30;;;;;;;15.00;13.60;;;20.80;99.90;;;;;;4960199;28;20046;-86
2022/08/16 00:23:56;;;;;;;14.68;13.20;;;20.80;99.90;;;;;;4994353;28;20050;-86
2022/08/16 00:26:22;;;;;;;15.93;14.25;;;20.80;99.90;;;;;;4976576;28;20097;-84
2022/08/16 00:28:48;;;;;;;15.30;13.50;;;20.80;99.90;;;;;;4976957;28;20050;-85
2022/08/16 00:31:13;;;;;;;15.52;14.07;;;20.70;99.90;;;;;;4993953;28;20129;-85
2022/08/16 00:33:39;;;;;;;16.42;14.82;;;20.80;99.90;;;;;;4976533;28;20133;-86
2022/08/16 00:36:05;;;;;;;15.27;13.88;;;20.80;99.90;;;;;;4976433;28;20097;-85
2022/08/16 00:38:31;;;;;;;15.65;14.13;;;20.80;99.90;;;;;;4976649;28;20050;-84
2022/08/16 00:40:56;;;;;;;14.95;13.18;;;20.80;99.90;;;;;;4994473;28;20053;-86
2022/08/16 00:43:25;;;;;;;14.98;13.50;;;20.80;99.90;;;;;;4976593;28;20555;-86
2022/08/16 00:45:59;;;;;;;14.68;13.27;;;20.80;99.90;;;;;;4944948;28;20100;-85
2022/08/16 00:48:25;;;;;;;16.67;14.98;;;20.80;99.90;;;;;;4993272;28;20132;-84
2022/08/16 00:50:51;;;;;;;15.85;14.15;;;20.70;99.90;;;;;;4979673;28;20054;-88
2022/08/16 00:53:17;;;;;;;15.23;13.73;;;20.70;99.90;;;;;;4981088;28;20047;-87
2022/08/16 00:55:47;;;;;;;17.65;13.68;;;20.70;99.90;;;;;;4977293;28;20046;-86
2022/08/16 00:58:15;;;;;;;15.05;13.60;;;20.70;99.90;;;;;;4990289;28;20072;-83
2022/08/16 01:00:40;;;;;;;18.90;15.48;;;20.70;99.90;;;;;;4947848;28;20397;-83
2022/08/16 01:03:08;;;;;;;14.95;13.55;;;20.70;99.90;;;;;;4980523;28;20034;-84
2022/08/16 01:05:34;;;;;;;15.80;14.40;;;20.70;99.90;;;;;;4962170;28;20045;-85
2022/08/16 01:08:01;;;;;;;16.98;15.20;;;20.70;99.90;;;;;;4994190;28;20054;-85
2022/08/16 01:10:27;;;;;;;16.02;14.52;;;20.70;99.90;;;;;;4960552;28;20125;-86
2022/08/16 01:12:53;;;;;;;15.35;13.77;;;20.60;99.90;;;;;;4976638;28;20495;-85
2022/08/16 01:15:19;;;;;;;17.02;15.35;;;20.50;99.90;;;;;;4993466;28;20136;-86
2022/08/16 01:17:45;;;;;;;17.05;14.98;;;20.50;99.90;;;;;;4976074;28;20042;-87
2022/08/16 01:20:10;;;;;;;16.75;15.05;;;20.50;99.90;;;;;;4944877;28;20056;-86
2022/08/16 01:22:58;;;;;;;17.15;15.43;;;20.40;99.90;;;;;;4961731;28;20034;-86
2022/08/16 01:25:34;;;;;;;21.73;17.83;;;20.40;99.90;;;;;;4980140;28;20157;-87
2022/08/16 01:28:01;;;;;;;19.85;17.60;;;20.40;99.90;;;;;;4976290;28;20409;-86
2022/08/16 01:30:31;;;;;;;20.90;18.50;;;20.40;99.90;;;;;;4959200;28;20046;-89
2022/08/16 01:33:00;;;;;;;19.48;17.58;;;20.40;99.90;;;;;;4944102;28;20379;-87
2022/08/16 01:35:27;;;;;;;20.60;18.55;;;20.40;99.90;;;;;;4960275;28;20039;-87
2022/08/16 01:37:53;;;;;;;20.15;18.17;;;20.30;99.90;;;;;;4975988;28;20131;-85
2022/08/16 01:40:23;;;;;;;21.60;19.17;;;20.30;99.90;;;;;;4959679;28;20437;-87
2022/08/16 01:42:48;;;;;;;21.77;19.50;;;20.30;99.90;;;;;;4975697;28;20549;-86
2022/08/16 01:45:15;;;;;;;21.80;19.70;;;20.40;99.90;;;;;;4959625;28;20089;-86
2022/08/16 01:47:41;;;;;;;22.17;19.92;;;20.40;99.90;;;;;;4975463;28;20057;-87
2022/08/16 01:50:07;;;;;;;21.08;18.95;;;20.40;99.90;;;;;;4959494;28;20038;-86
2022/08/16 01:52:33;;;;;;;22.02;19.50;;;20.40;99.90;;;;;;4992618;28;20053;-85
2022/08/16 01:54:59;;;;;;;21.35;19.17;;;20.40;99.90;;;;;;4943460;28;20034;-85
2022/08/16 01:57:24;;;;;;;21.10;19.00;;;20.40;99.90;;;;;;4975400;28;20053;-86
2022/08/16 01:59:50;;;;;;;21.35;19.20;;;20.40;99.90;;;;;;4992647;28;20038;-86
2022/08/16 02:02:18;;;;;;;21.35;19.08;;;20.40;99.90;;;;;;4992720;28;20045;-86
2022/08/16 02:04:44;;;;;;;21.13;18.48;;;20.50;99.90;;;;;;4992138;28;20042;-85
2022/08/16 02:07:11;;;;;;;21.27;18.75;;;20.50;99.90;;;;;;4993303;28;20113;-85
2022/08/16 02:09:38;;;;;;;21.40;18.70;;;20.50;99.90;;;;;;4975346;28;20047;-84
2022/08/16 02:12:05;;;;;;;20.10;18.00;;;20.50;99.90;;;;;;4959613;28;20533;-85
2022/08/16 02:14:32;;;;;;;20.35;18.30;;;20.50;99.90;;;;;;4943670;28;20062;-85
2022/08/16 02:17:00;;;;;;;19.48;17.48;;;20.50;99.90;;;;;;4975686;28;20550;-86
2022/08/16 02:19:26;;;;;;;21.70;19.02;;;20.50;99.90;;;;;;4961924;28;20054;-85
2022/08/16 02:21:53;;;;;;;22.65;18.13;;;20.50;99.90;;;;;;4980263;28;20043;-85
2022/08/16 02:24:20;;;;;;;22.58;18.75;;;20.40;99.90;;;;;;4999662;28;20038;-85
2022/08/16 02:26:46;;;;;;;22.98;18.48;;;20.40;99.90;;;;;;4984815;28;20054;-87
2022/08/16 02:29:11;;;;;;;21.08;18.98;;;20.40;99.90;;;;;;5019662;28;20037;-88
2022/08/16 02:31:37;;;;;;;21.58;19.27;;;20.40;99.90;;;;;;4996309;28;20097;-86
2022/08/16 02:34:05;;;;;;;20.80;18.70;;;20.30;99.90;;;;;;4993145;28;20069;-85
2022/08/16 02:36:30;;;;;;;21.58;19.55;;;20.30;99.90;;;;;;4967616;28;20378;-86
2022/08/16 02:38:56;;;;;;;21.23;19.02;;;20.30;99.90;;;;;;4996426;28;20047;-84
2022/08/16 02:41:22;;;;;;;22.88;20.40;;;20.20;99.90;;;;;;4979114;28;20085;-84
2022/08/16 02:43:47;;;;;;;19.90;17.77;;;20.20;99.90;;;;;;4995964;28;20069;-84
2022/08/16 02:46:13;;;;;;;20.42;18.27;;;20.10;99.90;;;;;;4978382;28;20449;-84
2022/08/16 02:48:39;;;;;;;20.35;18.05;;;20.00;99.90;;;;;;4978672;28;20053;-86
2022/08/16 02:51:05;;;;;;;20.52;18.27;;;20.00;99.90;;;;;;4962722;28;20042;-84
2022/08/16 02:53:31;;;;;;;20.08;17.98;;;20.00;99.90;;;;;;4996149;28;20049;-84
2022/08/16 02:55:57;;;;;;;22.75;18.33;;;19.90;99.90;;;;;;4963601;28;20336;-84
2022/08/16 02:58:23;;;;;;;20.85;18.70;;;19.90;99.90;;;;;;4978407;28;20046;-85
2022/08/16 03:00:49;;;;;;;20.42;18.30;;;19.80;99.90;;;;;;4978253;28;20046;-84
2022/08/16 03:03:14;;;;;;;20.48;17.98;;;19.80;99.90;;;;;;4978582;28;20043;-85
2022/08/16 03:05:40;;;;;;;23.75;18.83;;;19.80;99.90;;;;;;4962127;28;20049;-85
2022/08/16 03:08:08;;;;;;;22.65;19.23;;;19.80;99.90;;;;;;4978953;28;20047;-85
2022/08/16 03:10:34;;;;;;;22.52;19.45;;;19.70;99.90;;;;;;4981125;28;20129;-85
2022/08/16 03:13:00;;;;;;;21.15;18.85;;;19.70;99.90;;;;;;4998804;28;20058;-84
2022/08/16 03:15:25;;;;;;;21.33;19.23;;;19.70;99.90;;;;;;4980608;28;20100;-85
2022/08/16 03:17:52;;;;;;;22.17;19.80;;;19.70;99.90;;;;;;4964914;28;20050;-86
2022/08/16 03:20:18;;;;;;;21.98;19.75;;;19.70;99.90;;;;;;4981967;28;20409;-85
2022/08/16 03:22:44;;;;;;;22.77;20.45;;;19.70;99.90;;;;;;4963072;28;20042;-85
2022/08/16 03:25:11;;;;;;;23.92;21.35;;;19.70;99.90;;;;;;4978518;28;20039;-85
2022/08/16 03:27:37;;;;;;;23.08;20.73;;;19.60;99.90;;;;;;4978948;28;20050;-85
2022/08/16 03:30:13;;;;;;;25.27;20.58;;;19.60;99.90;;;;;;4965160;28;20508;-85
2022/08/16 03:32:38;;;;;;;25.33;22.02;;;19.60;99.90;;;;;;4950056;28;20034;-85
2022/08/16 03:35:06;;;;;;;24.67;21.75;;;19.50;99.90;;;;;;4946390;28;20053;-86
2022/08/16 03:37:32;;;;;;;26.73;21.67;;;19.40;99.90;;;;;;4961943;28;20089;-86
2022/08/16 03:39:57;;;;;;;24.70;22.15;;;19.30;99.90;;;;;;4977733;28;20037;-86
2022/08/16 03:42:23;;;;;;;25.10;22.25;;;19.20;99.90;;;;;;4978169;28;20047;-85
2022/08/16 03:44:49;;;;;;;24.02;21.55;;;19.20;99.90;;;;;;4947920;28;20065;-86
2022/08/16 03:47:14;;;;;;;23.77;21.38;;;19.20;99.90;;;;;;4992302;28;20040;-86
2022/08/16 03:49:40;;;;;;;24.60;21.02;;;19.10;99.90;;;;;;4988741;28;20046;-86
2022/08/16 03:52:06;;;;;;;23.80;21.23;;;19.10;99.90;;;;;;4996417;28;20049;-87
2022/08/16 03:54:32;;;;;;;23.05;20.60;;;19.00;99.90;;;;;;4962017;28;20132;-83
2022/08/16 03:56:57;;;;;;;23.77;21.13;;;19.00;99.90;;;;;;4995196;28;20259;-84
2022/08/16 03:59:23;;;;;;;26.90;21.02;;;18.90;99.90;;;;;;4995449;28;20137;-87
2022/08/16 04:01:49;;;;;;;23.92;21.45;;;18.90;99.90;;;;;;4978826;28;20042;-86
2022/08/16 04:04:14;;;;;;;23.27;20.88;;;18.90;99.90;;;;;;5000966;28;20062;-89
2022/08/16 04:06:40;;;;;;;22.50;20.05;;;18.90;99.90;;;;;;5016089;28;20042;-86
2022/08/16 04:09:06;;;;;;;26.95;23.30;;;18.80;99.90;;;;;;4974688;28;20478;-84
2022/08/16 04:11:31;;;;;;;26.63;22.55;;;18.80;99.90;;;;;;4984921;28;20459;-85
2022/08/16 04:13:57;;;;;;;26.35;21.98;;;18.70;99.90;;;;;;4994463;28;20046;-83
2022/08/16 04:16:23;;;;;;;26.63;22.35;;;18.70;99.90;;;;;;4977498;28;20061;-84
2022/08/16 04:18:48;;;;;;;26.88;23.90;;;18.60;99.90;;;;;;4976601;28;20065;-89
2022/08/16 04:21:14;;;;;;;24.50;22.00;;;18.70;99.90;;;;;;4977045;28;20054;-84
2022/08/16 04:23:40;;;;;;;29.02;23.63;;;18.70;99.90;;;;;;4994447;28;20049;-85
2022/08/16 04:26:06;;;;;;;28.90;23.65;;;18.70;99.90;;;;;;4960981;28;20096;-87
2022/08/16 04:28:32;;;;;;;27.55;23.88;;;18.60;99.90;;;;;;4977025;28;20045;-85
2022/08/16 04:30:57;;;;;;;29.50;24.65;;;18.60;99.90;;;;;;4994261;28;20093;-85
2022/08/16 04:33:24;;;;;;;28.52;25.33;;;18.50;99.90;;;;;;4963197;28;20049;-86
2022/08/16 04:35:50;;;;;;;31.52;25.98;;;18.50;99.90;;;;;;4979909;28;20042;-85
2022/08/16 04:38:18;;;;;;;29.83;26.67;;;18.40;99.90;;;;;;4994281;28;20061;-84
2022/08/16 04:40:46;;;;;;;31.33;25.27;;;18.40;99.90;;;;;;4960852;28;20050;-84
2022/08/16 04:43:14;;;;;;;27.92;24.88;;;18.40;99.90;;;;;;4977204;28;20107;-85
2022/08/16 04:45:41;;;;;;;26.90;24.00;;;18.40;99.90;;;;;;4976421;28;20438;-85
2022/08/16 04:48:07;;;;;;;28.17;23.80;;;18.40;99.90;;;;;;4993854;28;20034;-84
2022/08/16 04:50:33;;;;;;;26.40;23.58;;;18.50;99.90;;;;;;4976339;28;20112;-85
2022/08/16 04:52:59;;;;;;;30.27;24.38;;;18.40;99.90;;;;;;4960332;28;20045;-84
2022/08/16 04:55:25;;;;;;;28.42;25.10;;;18.50;99.90;;;;;;4976357;28;20514;-85
2022/08/16 04:57:52;;;;;;;27.17;24.13;;;18.60;99.90;;;;;;4960663;28;20050;-85
2022/08/16 05:00:21;;;;;;;26.30;23.60;;;18.80;99.90;;;;;;4976378;28;20482;-86
2022/08/16 05:02:49;;;;;;;30.20;23.85;;;19.20;99.90;;;;;;4960730;28;20046;-85
2022/08/16 05:05:15;;;;;;;26.23;23.30;;;19.70;99.90;;;;;;4975596;28;20373;-84
2022/08/16 05:07:40;;;;;;;29.40;23.00;;;20.00;99.90;;;;;;5003705;28;20101;-83
2022/08/16 05:10:07;;;;;;;27.67;23.95;;;20.20;99.90;;;;;;4998219;28;20038;-88
2022/08/16 05:12:32;;;;;;;26.48;22.65;;;20.10;99.90;;;;;;4966817;28;20466;-87
2022/08/16 05:14:58;;;;;;;26.67;23.50;;;20.00;99.90;;;;;;4959924;28;20145;-85
2022/08/16 05:17:24;;;;;;;27.35;24.38;;;19.90;99.90;;;;;;4976245;28;20042;-84
2022/08/16 05:19:49;;;;;;;25.25;22.73;;;19.80;99.90;;;;;;4993707;28;20077;-85
2022/08/16 05:22:15;;;;;;;27.45;23.92;;;20.10;99.90;;;;;;4993489;28;20274;-84
2022/08/16 05:24:41;;;;;;;25.55;22.80;;;20.60;99.90;;;;;;4959957;28;20042;-86
2022/08/16 05:27:06;;;;;;;26.15;23.15;;;21.20;99.90;;;;;;4993093;28;20489;-84
2022/08/16 05:29:33;;;;;;;25.17;22.67;;;21.70;99.90;;;;;;4976038;28;20386;-84
2022/08/16 05:32:00;;;;;;;25.80;22.33;;;22.20;99.90;;;;;;4959733;28;20042;-86
2022/08/16 05:34:27;;;;;;;24.65;22.10;;;22.70;99.90;;;;;;4960708;28;20173;-85
2022/08/16 05:36:56;;;;;;;24.50;21.67;;;22.90;99.90;;;;;;4993231;28;20041;-85
2022/08/16 05:39:22;;;;;;;24.23;21.65;;;23.10;99.90;;;;;;4999935;28;20038;-87
2022/08/16 05:41:48;;;;;;;23.27;20.77;;;23.50;99.90;;;;;;5016396;28;20046;-87
2022/08/16 05:44:14;;;;;;;24.55;22.02;;;23.70;99.90;;;;;;4981765;28;20053;-86
2022/08/16 05:46:41;;;;;;;24.40;21.92;;;23.70;99.90;;;;;;4996549;28;20089;-87
2022/08/16 05:49:07;;;;;;;22.90;20.65;;;23.50;99.90;;;;;;4979250;28;20046;-85
2022/08/16 05:51:32;;;;;;;22.23;20.05;;;23.70;99.90;;;;;;4961032;28;20048;-86
2022/08/16 05:53:58;;;;;;;23.02;19.60;;;23.80;99.90;;;;;;4995097;28;20121;-85
2022/08/16 05:56:24;;;;;;;20.42;18.33;;;24.50;99.90;;;;;;4996400;28;20042;-85
2022/08/16 05:58:49;;;;;;;21.17;19.17;;;24.70;99.90;;;;;;4979494;28;20050;-87
2022/08/16 06:01:15;;;;;;;19.83;17.73;;;24.90;99.90;;;;;;4978705;28;20414;-86
2022/08/16 06:03:40;;;;;;;19.33;17.42;;;25.30;99.90;;;;;;4963188;28;20424;-85
2022/08/16 06:06:06;;;;;;;21.02;17.85;;;25.60;99.90;;;;;;4978437;28;20030;-85
2022/08/16 06:08:32;;;;;;;19.20;17.25;;;25.70;99.90;;;;;;4979000;28;20049;-85
2022/08/16 06:10:58;;;;;;;18.50;16.70;;;25.90;99.90;;;;;;4979504;28;20050;-85
2022/08/16 06:13:23;;;;;;;18.40;16.70;;;26.30;99.90;;;;;;4978077;28;20053;-85
2022/08/16 06:15:50;;;;;;;17.00;15.30;;;25.90;99.90;;;;;;4996430;28;20054;-85
2022/08/16 06:18:18;;;;;;;16.02;14.52;;;26.70;99.90;;;;;;4978373;28;20092;-85
2022/08/16 06:20:43;;;;;;;17.27;14.18;;;26.80;99.90;;;;;;4978752;28;20046;-85
2022/08/16 06:23:09;;;;;;;14.32;12.93;;;27.00;99.90;;;;;;4995547;28;20470;-85
2022/08/16 06:25:34;;;;;;;12.65;11.48;;;27.30;99.90;;;;;;4978676;28;20088;-85
2022/08/16 06:28:00;;;;;;;13.05;11.65;;;27.60;99.90;;;;;;4978512;28;20050;-84
2022/08/16 06:30:26;;;;;;;12.35;11.18;;;28.10;99.90;;;;;;5002536;28;20069;-85
2022/08/16 06:32:51;;;;;;;11.60;10.40;;;28.30;99.90;;;;;;5009568;28;20102;-84
2022/08/16 06:35:17;;;;;;;10.93;9.82;;;28.40;99.90;;;;;;5001689;28;20038;-86
2022/08/16 06:37:43;;;;;;;12.10;10.90;;;28.60;99.90;;;;;;4979144;28;20077;-86
2022/08/16 06:40:09;;;;;;;11.35;10.30;;;28.10;99.90;;;;;;4995636;28;20458;-86
2022/08/16 06:42:35;;;;;;;12.60;11.23;;;27.80;99.90;;;;;;4978798;28;20050;-86
2022/08/16 06:45:00;;;;;;;11.85;10.68;;;27.40;99.90;;;;;;4996166;28;20089;-86
2022/08/16 06:47:26;;;;;;;11.95;10.82;;;27.50;99.90;;;;;;4978362;28;20297;-86
2022/08/16 06:49:52;;;;;;;11.75;10.23;;;28.10;99.90;;;;;;4978570;28;20085;-87
2022/08/16 06:52:17;;;;;;;13.38;10.82;;;28.50;99.90;;;;;;4963560;28;20053;-85
2022/08/16 06:54:43;;;;;;;14.73;11.07;;;28.10;99.90;;;;;;4982611;28;20092;-86
2022/08/16 06:57:10;;;;;;;12.30;11.02;;;27.50;99.90;;;;;;4979303;28;20042;-87
2022/08/16 06:59:36;;;;;;;13.55;11.60;;;27.50;99.90;;;;;;4979739;28;20150;-87
2022/08/16 07:02:03;;;;;;;15.05;11.85;;;27.40;99.90;;;;;;4963526;28;20121;-86
2022/08/16 07:04:28;;;;;;;12.88;11.57;;;27.90;99.90;;;;;;4961517;28;20038;-86
2022/08/16 07:06:54;;;;;;;12.43;10.52;;;28.00;99.90;;;;;;4962420;28;20363;-86
2022/08/16 07:09:20;;;;;;;12.40;11.13;;;28.50;99.90;;;;;;4999406;28;20046;-87
2022/08/16 07:11:45;;;;;;;11.75;10.65;;;28.60;99.90;;;;;;4983780;28;20043;-89
2022/08/16 07:14:14;;;;;;;12.65;11.40;;;28.90;99.90;;;;;;5017862;28;20086;-90
2022/08/16 07:16:43;;;;;;;12.32;10.93;;;28.60;99.90;;;;;;4968648;28;20050;-87
2022/08/16 07:19:09;;;;;;;12.43;11.02;;;29.20;99.90;;;;;;4995819;28;20658;-87
2022/08/16 07:21:37;;;;;;;13.43;11.07;;;29.20;99.90;;;;;;4952453;28;20142;-89
2022/08/16 07:24:06;;;;;;;11.98;10.85;;;28.80;99.90;;;;;;4996295;28;20145;-87
2022/08/16 07:26:32;;;;;;;12.32;10.65;;;28.70;99.90;;;;;;4948290;28;20515;-89
2022/08/16 07:28:58;;;;;;;12.10;10.93;;;28.60;99.90;;;;;;4978750;28;20046;-88
2022/08/16 07:31:24;;;;;;;13.98;11.50;;;28.90;99.90;;;;;;4977575;28;20096;-89
2022/08/16 07:33:50;;;;;;;14.45;11.27;;;28.60;99.90;;;;;;4978207;28;20054;-90
2022/08/16 07:36:17;;;;;;;12.32;11.00;;;29.50;99.90;;;;;;4977409;28;20129;-89
2022/08/16 07:38:45;;;;;;;11.07;9.70;;;29.90;99.90;;;;;;4993809;28;20045;-89
2022/08/16 07:41:11;;;;;;;11.65;10.57;;;29.70;99.90;;;;;;4975267;28;20058;-90
2022/08/16 07:43:36;;;;;;;11.30;10.25;;;29.20;99.90;;;;;;4991398;28;20578;-90
2022/08/16 07:46:02;;;;;;;12.00;10.68;;;29.70;99.90;;;;;;4994529;28;20077;-90
2022/08/16 07:48:28;;;;;;;14.80;12.52;;;29.40;99.90;;;;;;4994029;28;20503;-89
2022/08/16 07:50:54;;;;;;;13.70;12.40;;;29.40;99.90;;;;;;4982948;28;20061;-89
2022/08/16 07:53:19;;;;;;;11.93;10.85;;;28.90;99.90;;;;;;5008653;28;20129;-88
2022/08/16 07:55:45;;;;;;;13.55;12.23;;;29.60;99.90;;;;;;5016524;28;20042;-87
2022/08/16 07:58:11;;;;;;;12.60;10.88;;;29.50;99.90;;;;;;4986055;28;20080;-89
2022/08/16 08:00:37;;;;;;;14.10;11.27;;;29.70;99.90;;;;;;5011579;28;20137;-89
2022/08/16 08:03:03;;;;;;;12.75;11.55;;;30.30;99.90;;;;;;4993957;28;20366;-87
2022/08/16 08:05:28;;;;;;;12.65;11.30;;;29.60;99.50;;;;;;5010296;28;20487;-88
2022/08/16 08:07:54;;;;;;;14.52;10.80;;;30.00;99.70;;;;;;4994535;28;20092;-89
2022/08/16 08:10:20;;;;;;;11.32;10.18;;;30.20;99.60;;;;;;4991790;28;20054;-88
2022/08/16 08:12:50;;;;;;;10.57;9.52;;;30.00;99.30;;;;;;4993488;28;20078;-89
2022/08/16 08:15:17;;;;;;;12.77;10.85;;;30.70;99.10;;;;;;4991571;28;20399;-90
2022/08/16 08:17:43;;;;;;;10.82;9.82;;;30.20;98.60;;;;;;4975444;28;20042;-88
2022/08/16 08:20:12;;;;;;;11.18;10.07;;;30.50;99.10;;;;;;4975325;28;20058;-89
2022/08/16 08:22:38;;;;;;;11.32;10.15;;;29.80;98.80;;;;;;4991418;28;20073;-88
2022/08/16 08:25:05;;;;;;;12.43;9.82;;;30.30;98.50;;;;;;5008145;28;20474;-87
2022/08/16 08:27:30;;;;;;;10.30;9.40;;;30.10;98.60;;;;;;4992539;28;20050;-90
2022/08/16 08:29:57;;;;;;;11.18;9.73;;;30.70;98.70;;;;;;4977115;28;20053;-88
2022/08/16 08:32:24;;;;;;;11.43;9.60;;;30.70;98.20;;;;;;5008793;28;20050;-87
2022/08/16 08:34:49;;;;;;;10.77;9.70;;;30.50;98.20;;;;;;5008945;28;20042;-87
2022/08/16 08:37:15;;;;;;;10.77;9.68;;;30.70;98.30;;;;;;4979944;28;20078;-88
2022/08/16 08:39:41;;;;;;;10.55;9.55;;;31.00;98.50;;;;;;4996560;28;20201;-89
2022/08/16 08:42:07;;;;;;;10.57;9.48;;;31.30;97.90;;;;;;4993622;28;20129;-88
2022/08/16 08:44:33;;;;;;;11.32;9.80;;;30.80;97.70;;;;;;4975892;28;20088;-88
2022/08/16 08:47:00;;;;;;;10.63;9.50;;;31.10;97.90;;;;;;5011654;28;20076;-89
2022/08/16 08:49:25;;;;;;;10.50;9.48;;;30.80;97.80;;;;;;5015450;28;20061;-88
2022/08/16 08:51:51;;;;;;;10.52;9.57;;;31.00;97.80;;;;;;4997658;28;20042;-88
2022/08/16 08:54:17;;;;;;;9.30;8.40;;;30.90;97.70;;;;;;5025289;28;20103;-87
2022/08/16 08:56:43;;;;;;;10.43;9.48;;;31.40;97.70;;;;;;5018411;28;20235;-87
2022/08/16 08:59:09;;;;;;;10.07;9.15;;;31.20;97.70;;;;;;4992620;28;20108;-86
2022/08/16 09:01:35;;;;;;;10.10;9.10;;;31.70;97.20;;;;;;4992978;28;20125;-86
2022/08/16 09:04:02;;;;;;;9.20;8.30;;;31.70;96.90;;;;;;5007802;28;20049;-86
2022/08/16 09:06:31;;;;;;;10.43;8.35;;;31.30;96.80;;;;;;5007389;28;20181;-86
2022/08/16 09:08:57;;;;;;;11.25;8.35;;;31.90;96.90;;;;;;4991237;28;20163;-86
2022/08/16 09:11:24;;;;;;;9.68;8.68;;;31.90;96.70;;;;;;5007501;28;20050;-87
2022/08/16 09:13:50;;;;;;;9.43;8.63;;;31.60;96.70;;;;;;4990919;28;20054;-86
2022/08/16 09:16:16;;;;;;;9.82;8.93;;;32.00;96.50;;;;;;4998930;28;20085;-88
2022/08/16 09:18:43;;;;;;;9.00;8.15;;;32.30;96.20;;;;;;5011466;28;20073;-86
2022/08/16 09:21:09;;;;;;;8.93;8.02;;;32.60;95.80;;;;;;5000440;28;20085;-87
2022/08/16 09:23:35;;;;;;;9.43;7.47;;;32.20;96.20;;;;;;4991097;28;20136;-88
2022/08/16 09:26:01;;;;;;;9.93;9.02;;;32.70;96.20;;;;;;5007712;28;20487;-88
2022/08/16 09:28:27;;;;;;;9.00;8.10;;;32.30;95.40;;;;;;4980782;28;20494;-88
2022/08/16 09:30:54;;;;;;;7.90;7.13;;;32.70;95.30;;;;;;4959298;28;20066;-89
2022/08/16 09:33:19;;;;;;;7.90;7.07;;;32.90;95.20;;;;;;4977470;28;20049;-87
2022/08/16 09:35:45;;;;;;;7.32;6.53;;;32.30;94.70;;;;;;4976681;28;20050;-87
2022/08/16 09:38:17;;;;;;;6.47;5.83;;;32.80;94.60;;;;;;4975831;28;20089;-88
2022/08/16 09:40:43;;;;;;;6.15;5.55;;;32.70;94.90;;;;;;4976100;28;20090;-87
2022/08/16 09:43:11;;;;;;;5.63;5.10;;;33.10;94.00;;;;;;4975909;28;20081;-86
2022/08/16 09:45:40;;;;;;;5.82;4.80;;;32.70;93.80;;;;;;4976327;28;20461;-85
2022/08/16 09:48:07;;;;;;;6.97;6.28;;;32.80;93.60;;;;;;4991395;28;20062;-86
2022/08/16 09:50:34;;;;;;;7.22;6.53;;;32.60;94.00;;;;;;4974629;28;20391;-86
2022/08/16 09:53:02;;;;;;;6.82;5.53;;;32.10;93.90;;;;;;4991818;28;20110;-87
2022/08/16 09:55:28;;;;;;;8.15;6.38;;;32.90;94.20;;;;;;4975357;28;20055;-88
2022/08/16 09:57:54;;;;;;;7.45;6.68;;;33.30;94.20;;;;;;4976757;28;20049;-88
2022/08/16 10:00:19;;;;;;;7.03;5.88;;;32.80;94.20;;;;;;4992156;28;20055;-88
2022/08/16 10:02:46;;;;;;;8.32;7.55;;;33.60;93.80;;;;;;4976906;28;20138;-86
2022/08/16 10:05:11;;;;;;;6.63;6.03;;;33.50;93.60;;;;;;4991680;28;20050;-87
2022/08/16 10:07:38;;;;;;;7.22;5.80;;;33.40;93.80;;;;;;4976043;28;20101;-90
2022/08/16 10:10:04;;;;;;;6.75;6.10;;;33.50;93.70;;;;;;4960010;28;20077;-90
2022/08/16 10:15:17;;;;;;;6.88;5.65;;;33.30;93.10;;;;;;4972723;28;20523;-91
2022/08/16 10:17:47;;;;;;;8.55;5.65;;;32.90;92.90;;;;;;4975517;28;20200;-95
2022/08/16 10:20:15;;;;;;;5.80;4.63;;;32.60;93.10;;;;;;4960189;28;20062;-91
2022/08/16 10:22:40;;;;;;;6.50;4.57;;;33.40;92.90;;;;;;4983376;28;20073;-88
2022/08/16 10:25:06;;;;;;;7.25;5.07;;;33.10;92.40;;;;;;5015728;28;20155;-90
2022/08/16 10:27:34;;;;;;;5.15;4.65;;;32.70;92.40;;;;;;4998672;28;20034;-90
2022/08/16 10:30:00;;;;;;;7.55;5.35;;;33.20;92.50;;;;;;5014810;28;20054;-90
2022/08/16 10:32:26;;;;;;;6.55;4.57;;;33.00;92.60;;;;;;4999353;28;20058;-89
2022/08/16 10:34:52;;;;;;;5.18;4.70;;;33.10;92.70;;;;;;4977208;28;20058;-89
2022/08/16 10:37:17;;;;;;;4.47;3.90;;;32.80;92.60;;;;;;4982707;28;20051;-85
2022/08/16 10:39:43;;;;;;;4.05;3.60;;;33.10;92.30;;;;;;4998207;28;20050;-89
2022/08/16 10:42:09;;;;;;;4.15;3.50;;;33.20;91.30;;;;;;4980431;28;20101;-88
2022/08/16 10:44:35;;;;;;;6.53;4.22;;;33.30;91.80;;;;;;5008785;28;20043;-88
2022/08/16 10:47:01;;;;;;;5.53;4.40;;;32.80;92.10;;;;;;4986949;28;20049;-88
2022/08/16 10:49:26;;;;;;;5.55;5.07;;;33.00;92.30;;;;;;4981250;28;20043;-88
2022/08/16 10:51:54;;;;;;;4.93;4.43;;;33.40;92.00;;;;;;4977999;28;20061;-90
2022/08/16 10:54:20;;;;;;;5.47;4.47;;;33.20;91.80;;;;;;4977183;28;20054;-90
2022/08/16 10:56:47;;;;;;;4.88;4.43;;;33.10;91.60;;;;;;4992221;28;20046;-90
2022/08/16 10:59:12;;;;;;;5.68;4.38;;;32.80;91.50;;;;;;4959547;28;20073;-90
2022/08/16 11:01:38;;;;;;;4.90;4.30;;;32.60;91.80;;;;;;4975214;28;20047;-89
2022/08/16 11:04:05;;;;;;;4.57;4.18;;;32.50;92.10;;;;;;4976156;28;20047;-89
2022/08/16 11:06:31;;;;;;;4.65;4.25;;;32.60;92.30;;;;;;4977082;28;20069;-89
2022/08/16 11:08:57;;;;;;;5.10;4.38;;;32.80;92.00;;;;;;4990969;28;20491;-92
2022/08/16 11:11:24;;;;;;;4.93;3.83;;;32.80;91.80;;;;;;4976796;28;20454;-89
2022/08/16 11:13:51;;;;;;;4.75;4.20;;;32.50;92.00;;;;;;4975063;28;20047;-91
2022/08/16 11:16:17;;;;;;;4.43;4.03;;;32.40;92.00;;;;;;4975512;28;20418;-91
2022/08/16 11:18:44;;;;;;;6.47;4.78;;;32.00;92.30;;;;;;4991380;28;20050;-92
2022/08/16 11:21:12;;;;;;;4.55;4.25;;;32.00;92.10;;;;;;4990965;28;20050;-91
2022/08/16 11:23:37;;;;;;;4.85;4.30;;;31.50;92.50;;;;;;4975359;28;20078;-92
2022/08/16 11:26:03;;;;;;;4.55;4.15;;;31.10;92.60;;;;;;4977553;28;20138;-92
2022/08/16 11:28:30;;;;;;;4.32;3.90;;;30.90;92.30;;;;;;4977433;28;20101;-93
2022/08/16 11:30:58;;;;;;;4.25;3.45;;;31.10;92.50;;;;;;5002285;28;20098;-91
2022/08/16 11:33:24;;;;;;;3.90;3.58;;;30.80;92.20;;;;;;4997783;28;20054;-94
2022/08/16 11:35:50;;;;;;;7.57;3.50;;;31.00;91.90;;;;;;5011414;28;20502;-91
2022/08/16 11:38:18;;;;;;;4.53;3.63;;;30.90;92.20;;;;;;5010567;28;20047;-90
2022/08/16 11:40:55;;;;;;;5.03;4.07;;;30.80;91.90;;;;;;5010171;28;20058;-89
2022/08/16 11:43:23;;;;;;;6.13;4.22;;;30.70;91.90;;;;;;4995591;28;20102;-91
2022/08/16 11:45:49;;;;;;;4.40;4.00;;;30.90;92.60;;;;;;5014054;28;20050;-90
2022/08/16 11:48:14;;;;;;;6.10;4.65;;;30.80;92.70;;;;;;4995608;28;20058;-90
2022/08/16 11:50:41;;;;;;;5.85;4.50;;;31.20;93.00;;;;;;4995559;28;20043;-92
2022/08/16 11:53:07;;;;;;;4.50;4.10;;;31.20;92.70;;;;;;5010584;28;20054;-91
2022/08/16 11:55:33;;;;;;;6.03;3.78;;;31.20;92.40;;;;;;4996163;28;20046;-91
2022/08/16 11:57:59;;;;;;;3.45;3.15;;;31.10;92.10;;;;;;4999247;28;20033;-90
2022/08/16 12:00:26;;;;;;;6.10;3.50;;;31.10;91.70;;;;;;5004410;28;20050;-91
2022/08/16 12:02:52;;;;;;;5.22;3.72;;;31.00;92.00;;;;;;4994501;28;20030;-91
2022/08/16 12:05:18;;;;;;;5.53;4.30;;;30.90;92.20;;;;;;5017089;28;20060;-90
2022/08/16 12:07:43;;;;;;;4.85;4.25;;;30.80;92.30;;;;;;5014501;28;20081;-92
2022/08/16 12:10:14;;;;;;;4.65;3.83;;;31.00;92.70;;;;;;5022878;28;20046;-94
2022/08/16 12:12:41;;;;;;;6.38;4.20;;;30.80;91.50;;;;;;5013581;28;20042;-89
2022/08/16 12:15:07;;;;;;;4.35;3.72;;;31.10;92.00;;;;;;5011560;28;20100;-92
2022/08/16 12:17:33;;;;;;;4.60;3.75;;;31.10;91.90;;;;;;4981945;28;20051;-93
2022/08/16 12:20:00;;;;;;;4.15;3.65;;;31.10;92.20;;;;;;5017331;28;20046;-91
2022/08/16 12:22:26;;;;;;;5.00;3.88;;;31.10;92.50;;;;;;5012388;28;20054;-91
2022/08/16 12:24:52;;;;;;;4.00;3.70;;;31.30;92.30;;;;;;5011273;28;20445;-90
2022/08/16 12:27:18;;;;;;;5.63;3.92;;;31.40;92.20;;;;;;4993361;28;20057;-89
2022/08/16 12:29:44;;;;;;;4.13;3.67;;;31.20;91.90;;;;;;5010232;28;20060;-90
2022/08/16 12:32:10;;;;;;;4.32;3.92;;;31.40;91.40;;;;;;4993823;28;20486;-90